Time;durP1;ratioP1;P1;durP2;ratioP2;P2;SDS_P1;SDS_P2;PMS_P1;PMS_P2;Temp;Humidity;BMP_temperature;BMP_pressure;BME280_temperature;BME280_humidity;BME280_pressure;Samples;Min_cycle;Max_cycle;Signal;HPM_P1;HPM_P2
2022/12/31 00:00:06;;;;;;;;;;;18.10;51.10;;;;;;5074011;28;19921;-53
2022/12/31 00:02:31;;;;;;;;;;;18.00;50.90;;;;;;5074933;28;19966;-52
2022/12/31 00:04:57;;;;;;;;;;;18.00;50.90;;;;;;5074438;28;19955;-52
2022/12/31 00:07:22;;;;;;;;;;;18.00;51.10;;;;;;5074536;28;19920;-51
2022/12/31 00:09:48;;;;;;;;;;;18.00;51.10;;;;;;5074186;28;19916;-52
2022/12/31 00:12:13;;;;;;;;;;;18.00;51.30;;;;;;5074346;28;19958;-52
2022/12/31 00:14:39;;;;;;;;;;;18.00;51.00;;;;;;5074575;28;19913;-52
2022/12/31 00:17:04;;;;;;;;;;;17.90;51.10;;;;;;5074136;28;19921;-52
2022/12/31 00:19:29;;;;;;;;;;;17.90;51.20;;;;;;5072674;28;19913;-52
2022/12/31 00:21:55;;;;;;;;;;;17.90;51.30;;;;;;5074389;28;19924;-52
2022/12/31 00:24:20;;;;;;;;;;;17.90;51.50;;;;;;5072852;28;19916;-52
2022/12/31 00:26:46;;;;;;;;;;;17.80;51.30;;;;;;5074060;28;20338;-51
2022/12/31 00:29:11;;;;;;;;;;;17.80;51.40;;;;;;5069224;28;19916;-52
2022/12/31 00:31:37;;;;;;;;;;;17.80;51.70;;;;;;5070184;28;20280;-52
2022/12/31 00:34:02;;;;;;;;;;;17.70;51.70;;;;;;5073201;28;20373;-52
2022/12/31 00:36:32;;;;;;;;;;;17.70;51.70;;;;;;5070140;28;20368;-52
2022/12/31 00:38:58;;;;;;;;;;;17.70;51.90;;;;;;5066531;28;20368;-53
2022/12/31 00:41:23;;;;;;;;;;;17.70;52.20;;;;;;5070046;28;19999;-52
2022/12/31 00:43:49;;;;;;;;;;;17.60;52.20;;;;;;5062263;28;20360;-52
2022/12/31 00:46:14;;;;;;;;;;;17.60;52.40;;;;;;5068157;28;21631;-52
2022/12/31 00:48:40;;;;;;;;;;;17.60;52.40;;;;;;5067389;28;19974;-51
2022/12/31 00:51:05;;;;;;;;;;;17.50;52.40;;;;;;5071716;28;19917;-53
2022/12/31 00:53:31;;;;;;;;;;;17.50;52.60;;;;;;5065977;28;19948;-51
2022/12/31 00:56:00;;;;;;;;;;;17.50;52.60;;;;;;5065435;28;19967;-52
2022/12/31 00:58:26;;;;;;;;;;;17.50;52.60;;;;;;5065903;28;19916;-52
2022/12/31 01:00:51;;;;;;;;;;;17.50;52.90;;;;;;5073533;28;20415;-52
2022/12/31 01:03:16;;;;;;;;;;;17.50;52.90;;;;;;5070520;28;19998;-52
2022/12/31 01:05:42;;;;;;;;;;;17.40;52.80;;;;;;5065854;28;19917;-52
2022/12/31 01:08:07;;;;;;;;;;;17.40;52.80;;;;;;5070358;28;19920;-52
2022/12/31 01:13:17;;;;;;;;;;;17.40;52.90;;;;;;5065567;28;19923;-52
2022/12/31 01:15:42;;;;;;;;;;;17.40;52.90;;;;;;5068416;28;20304;-52
2022/12/31 01:18:08;;;;;;;;;;;17.30;52.80;;;;;;5081612;28;20352;-53
2022/12/31 01:20:36;;;;;;;;;;;17.30;53.20;;;;;;5061448;28;20344;-52
2022/12/31 01:23:02;;;;;;;;;;;17.30;53.10;;;;;;5083247;28;19908;-52
2022/12/31 01:25:27;;;;;;;;;;;17.30;53.10;;;;;;5072975;28;19970;-52
2022/12/31 01:27:53;;;;;;;;;;;17.30;53.30;;;;;;5057444;28;20387;-51
2022/12/31 01:30:18;;;;;;;;;;;17.20;53.30;;;;;;5053732;28;20327;-52
2022/12/31 01:32:44;;;;;;;;;;;17.20;53.30;;;;;;5070173;28;19913;-52
2022/12/31 01:35:09;;;;;;;;;;;17.20;53.60;;;;;;5082207;28;19923;-52
2022/12/31 01:37:35;;;;;;;;;;;17.20;53.60;;;;;;5054579;28;19929;-52
2022/12/31 01:40:00;;;;;;;;;;;17.20;53.80;;;;;;5053069;28;19909;-51
2022/12/31 01:42:25;;;;;;;;;;;17.10;53.90;;;;;;5072530;28;19957;-52
2022/12/31 01:44:52;;;;;;;;;;;17.10;53.90;;;;;;5064407;28;20059;-52
2022/12/31 01:47:19;;;;;;;;;;;17.10;54.00;;;;;;5067021;28;19920;-52
2022/12/31 01:49:56;;;;;;;;;;;17.10;54.20;;;;;;5066473;28;19956;-53
2022/12/31 01:52:36;;;;;;;;;;;17.10;54.30;;;;;;5066844;28;19919;-52
2022/12/31 01:55:11;;;;;;;;;;;17.10;54.40;;;;;;5070419;28;20002;-52
2022/12/31 01:57:36;;;;;;;;;;;17.00;54.40;;;;;;5097304;28;19942;-52
2022/12/31 02:00:02;;;;;;;;;;;17.00;54.30;;;;;;5064957;28;19913;-52
2022/12/31 02:02:28;;;;;;;;;;;17.00;54.40;;;;;;5065913;28;19957;-52
2022/12/31 02:04:54;;;;;;;;;;;17.00;54.60;;;;;;5064400;28;19916;-52
2022/12/31 02:07:19;;;;;;;;;;;17.00;54.50;;;;;;5080628;28;19913;-53
2022/12/31 02:09:45;;;;;;;;;;;17.00;54.50;;;;;;5065917;28;19920;-52
2022/12/31 02:12:10;;;;;;;;;;;17.00;54.40;;;;;;5065513;28;19912;-52
2022/12/31 02:14:40;;;;;;;;;;;17.20;54.20;;;;;;5064725;28;19939;-52
2022/12/31 02:17:08;;;;;;;;;;;17.30;53.80;;;;;;5076469;28;19916;-52
2022/12/31 02:19:49;;;;;;;;;;;17.60;53.20;;;;;;5073238;28;19920;-52
2022/12/31 02:22:17;;;;;;;;;;;17.90;52.50;;;;;;5070936;28;19990;-53
2022/12/31 02:24:52;;;;;;;;;;;18.40;51.60;;;;;;5072211;28;19923;-52
2022/12/31 02:27:17;;;;;;;;;;;18.60;50.90;;;;;;5071260;28;19913;-52
2022/12/31 02:29:58;;;;;;;;;;;19.00;50.20;;;;;;5069455;28;20391;-52
2022/12/31 02:32:27;;;;;;;;;;;19.40;49.70;;;;;;5063734;28;19913;-52
2022/12/31 02:34:56;;;;;;;;;;;20.00;48.10;;;;;;5064681;28;19951;-52
2022/12/31 02:37:21;;;;;;;;;;;20.70;46.80;;;;;;5063702;28;19935;-52
2022/12/31 02:39:47;;;;;;;;;;;21.20;45.90;;;;;;5094727;28;19912;-51
2022/12/31 02:42:12;;;;;;;;;;;21.50;45.20;;;;;;5064176;28;20391;-52
2022/12/31 02:44:38;;;;;;;;;;;21.70;44.80;;;;;;5067154;28;20334;-52
2022/12/31 02:47:07;;;;;;;;;;;21.80;44.60;;;;;;5065093;28;20384;-52
2022/12/31 02:49:32;;;;;;;;;;;21.90;44.40;;;;;;5063133;28;20066;-52
2022/12/31 02:52:09;;;;;;;;;;;21.70;44.60;;;;;;5064550;28;20008;-52
2022/12/31 02:54:58;;;;;;;;;;;21.50;45.20;;;;;;5064023;28;19924;-51
2022/12/31 02:57:33;;;;;;;;;;;21.20;45.60;;;;;;5064435;28;19913;-51
2022/12/31 03:02:50;;;;;;;;;;;20.70;46.90;;;;;;5064761;28;19947;-52
2022/12/31 03:05:16;;;;;;;;;;;20.40;47.50;;;;;;5095629;28;20373;-52
2022/12/31 03:07:41;;;;;;;;;;;20.20;47.90;;;;;;5094679;28;20309;-53
2022/12/31 03:10:07;;;;;;;;;;;20.00;48.40;;;;;;5093920;28;19916;-52
2022/12/31 03:12:48;;;;;;;;;;;19.80;48.70;;;;;;5063480;28;19933;-51
2022/12/31 03:15:20;;;;;;;;;;;19.60;49.10;;;;;;5063879;28;19916;-52
2022/12/31 03:17:58;;;;;;;;;;;19.50;49.60;;;;;;5071055;28;19991;-52
2022/12/31 03:23:11;;;;;;;;;;;19.20;50.30;;;;;;5068149;28;19942;-52
2022/12/31 03:25:40;;;;;;;;;;;19.00;50.50;;;;;;5070787;28;19916;-52
2022/12/31 03:28:09;;;;;;;;;;;18.90;50.90;;;;;;5070692;28;20280;-52
2022/12/31 03:30:36;;;;;;;;;;;18.80;51.20;;;;;;5068523;28;20006;-52
2022/12/31 03:33:01;;;;;;;;;;;18.70;51.60;;;;;;5064317;28;20287;-52
2022/12/31 03:35:27;;;;;;;;;;;18.60;51.80;;;;;;5062646;28;19912;-52
2022/12/31 03:37:52;;;;;;;;;;;18.60;51.90;;;;;;5064162;28;19948;-53
2022/12/31 03:40:19;;;;;;;;;;;18.60;52.10;;;;;;5063819;28;19917;-52
2022/12/31 03:42:44;;;;;;;;;;;18.70;51.80;;;;;;5062629;28;19916;-53
2022/12/31 03:45:10;;;;;;;;;;;18.80;51.70;;;;;;5060922;28;19924;-53
2022/12/31 03:47:35;;;;;;;;;;;18.90;51.40;;;;;;5066564;28;19912;-52
2022/12/31 03:50:01;;;;;;;;;;;19.00;51.20;;;;;;5066456;28;19920;-52
2022/12/31 03:52:26;;;;;;;;;;;19.10;51.00;;;;;;5067129;28;19916;-52
2022/12/31 03:54:52;;;;;;;;;;;19.30;50.70;;;;;;5067601;28;19920;-53
2022/12/31 03:57:17;;;;;;;;;;;19.30;50.40;;;;;;5066830;28;19919;-53
2022/12/31 03:59:42;;;;;;;;;;;19.40;50.20;;;;;;5066577;28;20003;-52
2022/12/31 04:02:08;;;;;;;;;;;19.50;50.00;;;;;;5067262;28;20085;-53
2022/12/31 04:04:33;;;;;;;;;;;19.60;49.80;;;;;;5068272;28;19927;-53
2022/12/31 04:06:59;;;;;;;;;;;19.60;49.70;;;;;;5067214;28;19917;-52
2022/12/31 04:09:24;;;;;;;;;;;19.60;49.80;;;;;;5066059;28;19923;-53
2022/12/31 04:11:50;;;;;;;;;;;19.50;49.90;;;;;;5067325;28;20015;-52
2022/12/31 04:14:16;;;;;;;;;;;19.40;50.20;;;;;;5067945;28;20094;-52
2022/12/31 04:16:41;;;;;;;;;;;19.40;50.30;;;;;;5067102;28;19916;-53
2022/12/31 04:19:07;;;;;;;;;;;19.30;50.50;;;;;;5059238;28;19912;-52
2022/12/31 04:21:32;;;;;;;;;;;19.10;50.70;;;;;;5067868;28;19939;-53
2022/12/31 04:23:58;;;;;;;;;;;19.10;51.00;;;;;;5066598;28;20003;-53
2022/12/31 04:26:23;;;;;;;;;;;19.00;51.20;;;;;;5066125;28;19913;-52
2022/12/31 04:28:49;;;;;;;;;;;18.90;51.40;;;;;;5068264;28;19912;-53
2022/12/31 04:31:14;;;;;;;;;;;18.80;51.60;;;;;;5069989;28;19938;-53
2022/12/31 04:33:39;;;;;;;;;;;18.70;51.80;;;;;;5074588;28;20350;-52
2022/12/31 04:36:06;;;;;;;;;;;18.70;51.90;;;;;;5072292;28;20365;-52
2022/12/31 04:38:31;;;;;;;;;;;18.70;51.90;;;;;;5065938;28;20033;-52
2022/12/31 04:41:15;;;;;;;;;;;18.80;51.90;;;;;;5073888;28;19912;-51
2022/12/31 04:43:41;;;;;;;;;;;18.90;51.50;;;;;;5072562;28;19912;-53
2022/12/31 04:46:06;;;;;;;;;;;19.10;51.10;;;;;;5071694;28;19917;-53
2022/12/31 04:48:32;;;;;;;;;;;19.20;50.70;;;;;;5070865;28;19912;-53
2022/12/31 04:50:58;;;;;;;;;;;19.40;50.50;;;;;;5069533;28;20003;-52
2022/12/31 04:53:23;;;;;;;;;;;19.60;50.00;;;;;;5068209;28;19999;-52
2022/12/31 04:55:49;;;;;;;;;;;19.70;49.70;;;;;;5066320;28;20043;-52
2022/12/31 04:58:14;;;;;;;;;;;19.70;49.70;;;;;;5065302;28;19999;-54
2022/12/31 05:00:39;;;;;;;;;;;19.60;49.90;;;;;;5066621;28;19916;-53
2022/12/31 05:03:05;;;;;;;;;;;19.50;50.00;;;;;;5065973;28;20230;-51
2022/12/31 05:05:30;;;;;;;;;;;19.40;50.30;;;;;;5064844;28;19944;-52
2022/12/31 05:07:56;;;;;;;;;;;19.30;50.60;;;;;;5065351;28;20391;-52
2022/12/31 05:10:22;;;;;;;;;;;19.20;51.40;;;;;;5066415;28;19916;-52
2022/12/31 05:12:47;;;;;;;;;;;19.10;51.00;;;;;;5073329;28;19954;-52
2022/12/31 05:15:13;;;;;;;;;;;19.00;51.20;;;;;;5073159;28;19917;-52
2022/12/31 05:17:38;;;;;;;;;;;18.90;51.50;;;;;;5073462;28;20318;-52
2022/12/31 05:20:04;;;;;;;;;;;18.80;51.80;;;;;;5067722;28;20575;-52
2022/12/31 05:22:29;;;;;;;;;;;18.70;51.90;;;;;;5073007;28;19924;-51
2022/12/31 05:24:55;;;;;;;;;;;18.70;51.90;;;;;;5073109;28;19927;-54
2022/12/31 05:27:21;;;;;;;;;;;18.60;52.10;;;;;;5072852;28;20364;-51
2022/12/31 05:29:46;;;;;;;;;;;18.70;52.00;;;;;;5071016;28;19923;-52
2022/12/31 05:32:12;;;;;;;;;;;18.80;51.60;;;;;;5068816;28;19920;-52
2022/12/31 05:34:37;;;;;;;;;;;18.90;51.50;;;;;;5066058;28;19916;-52
2022/12/31 05:37:03;;;;;;;;;;;19.00;51.30;;;;;;5067754;28;19970;-52
2022/12/31 05:39:28;;;;;;;;;;;19.10;50.90;;;;;;5065353;28;20307;-52
2022/12/31 05:41:53;;;;;;;;;;;19.40;50.60;;;;;;5065816;28;20379;-52
2022/12/31 05:44:19;;;;;;;;;;;19.50;50.00;;;;;;5065492;28;19920;-52
2022/12/31 05:46:45;;;;;;;;;;;19.60;49.90;;;;;;5066390;28;19924;-52
2022/12/31 05:49:11;;;;;;;;;;;19.70;49.60;;;;;;5052845;28;20368;-52
2022/12/31 05:51:36;;;;;;;;;;;19.60;49.80;;;;;;5063383;28;19921;-52
2022/12/31 05:54:02;;;;;;;;;;;19.50;49.80;;;;;;5066064;28;19947;-51
2022/12/31 05:56:27;;;;;;;;;;;19.40;50.10;;;;;;5065305;28;20280;-52
2022/12/31 05:58:53;;;;;;;;;;;19.30;50.50;;;;;;5066037;28;19974;-52
2022/12/31 06:01:18;;;;;;;;;;;19.20;50.50;;;;;;5067878;28;19952;-52
2022/12/31 06:03:44;;;;;;;;;;;19.10;50.90;;;;;;5065294;28;19921;-51
2022/12/31 06:06:09;;;;;;;;;;;19.00;51.00;;;;;;5064312;28;19916;-52
2022/12/31 06:08:35;;;;;;;;;;;18.90;51.10;;;;;;5064918;28;20288;-53
2022/12/31 06:11:00;;;;;;;;;;;18.90;51.40;;;;;;5064082;28;20284;-51
2022/12/31 06:13:26;;;;;;;;;;;18.70;51.50;;;;;;5065224;28;20645;-52
2022/12/31 06:15:51;;;;;;;;;;;18.70;51.80;;;;;;5064974;28;20380;-52
2022/12/31 06:18:17;;;;;;;;;;;18.70;51.80;;;;;;5064932;28;19920;-52
2022/12/31 06:20:42;;;;;;;;;;;18.70;51.80;;;;;;5063869;28;19912;-52
2022/12/31 06:23:08;;;;;;;;;;;18.70;51.70;;;;;;5064838;28;19941;-51
2022/12/31 06:25:33;;;;;;;;;;;18.80;51.60;;;;;;5063831;28;20288;-51
2022/12/31 06:27:59;;;;;;;;;;;18.80;51.60;;;;;;5066541;28;20372;-52
2022/12/31 06:30:24;;;;;;;;;;;18.80;51.40;;;;;;5070100;28;19948;-52
2022/12/31 06:32:50;;;;;;;;;;;18.80;51.30;;;;;;5064730;28;20314;-52
2022/12/31 06:35:15;;;;;;;;;;;19.00;51.20;;;;;;5063772;28;19970;-52
2022/12/31 06:37:41;;;;;;;;;;;19.10;50.90;;;;;;5068198;28;20019;-51
2022/12/31 06:40:06;;;;;;;;;;;19.20;50.60;;;;;;5064008;28;19931;-52
2022/12/31 06:42:32;;;;;;;;;;;19.40;50.20;;;;;;5064911;28;20493;-52
2022/12/31 06:44:57;;;;;;;;;;;19.50;50.20;;;;;;5065492;28;19975;-52
2022/12/31 06:47:23;;;;;;;;;;;19.50;50.00;;;;;;5064859;28;19924;-52
2022/12/31 06:49:48;;;;;;;;;;;19.50;50.10;;;;;;5064435;28;19913;-52
2022/12/31 06:52:14;;;;;;;;;;;19.50;50.00;;;;;;5065047;28;20065;-53
2022/12/31 06:54:39;;;;;;;;;;;19.40;50.10;;;;;;5063533;28;19974;-52
2022/12/31 06:57:05;;;;;;;;;;;19.30;50.20;;;;;;5063298;28;19963;-51
2022/12/31 06:59:31;;;;;;;;;;;19.10;50.60;;;;;;5065144;28;19916;-51
2022/12/31 07:02:03;;;;;;;;;;;19.10;50.70;;;;;;5063436;28;19928;-51
2022/12/31 07:04:47;;;;;;;;;;;19.00;50.90;;;;;;5063411;28;19924;-52
2022/12/31 07:07:16;;;;;;;;;;;18.90;51.20;;;;;;5067449;28;19912;-52
2022/12/31 07:09:44;;;;;;;;;;;18.80;51.50;;;;;;5090351;28;19985;-52
2022/12/31 07:12:19;;;;;;;;;;;18.70;51.50;;;;;;5066342;28;19992;-52
2022/12/31 07:14:45;;;;;;;;;;;18.70;51.80;;;;;;5063600;28;20349;-53
2022/12/31 07:17:14;;;;;;;;;;;18.70;51.80;;;;;;5100110;28;19912;-53
2022/12/31 07:19:51;;;;;;;;;;;18.70;51.70;;;;;;5067196;28;19912;-52
2022/12/31 07:22:17;;;;;;;;;;;18.70;51.50;;;;;;5071263;28;19929;-53
2022/12/31 07:24:42;;;;;;;;;;;18.90;51.40;;;;;;5072953;28;19927;-52
2022/12/31 07:27:26;;;;;;;;;;;18.90;51.10;;;;;;5075656;28;19923;-53
2022/12/31 07:30:05;;;;;;;;;;;19.00;50.90;;;;;;5074940;28;19913;-52
2022/12/31 07:32:34;;;;;;;;;;;19.10;50.80;;;;;;5066647;28;20003;-53
2022/12/31 07:35:18;;;;;;;;;;;19.20;50.60;;;;;;5100814;28;19931;-52
2022/12/31 07:37:48;;;;;;;;;;;19.30;50.40;;;;;;5068315;28;19920;-52
2022/12/31 07:40:34;;;;;;;;;;;19.30;50.40;;;;;;5099082;27;19913;-52
2022/12/31 07:43:03;;;;;;;;;;;19.30;50.30;;;;;;5066000;28;19942;-53
2022/12/31 07:45:31;;;;;;;;;;;19.20;50.40;;;;;;5068847;28;19916;-52
2022/12/31 07:47:56;;;;;;;;;;;19.20;50.50;;;;;;5068172;28;19960;-53
2022/12/31 07:50:22;;;;;;;;;;;19.10;50.70;;;;;;5068408;28;19952;-53
2022/12/31 07:52:48;;;;;;;;;;;19.10;50.70;;;;;;5066861;28;19951;-53
2022/12/31 07:55:13;;;;;;;;;;;19.00;50.90;;;;;;5066508;28;19912;-52
2022/12/31 07:57:53;;;;;;;;;;;19.00;51.10;;;;;;5066489;28;20662;-52
2022/12/31 08:00:19;;;;;;;;;;;18.90;51.00;;;;;;5065393;28;19927;-52
2022/12/31 08:03:01;;;;;;;;;;;18.90;51.20;;;;;;5067371;28;19921;-53
2022/12/31 08:05:33;;;;;;;;;;;18.90;51.40;;;;;;5063872;28;20357;-52
2022/12/31 08:08:17;;;;;;;;;;;18.90;51.30;;;;;;5069264;28;19919;-53
2022/12/31 08:10:46;;;;;;;;;;;18.90;51.20;;;;;;5068900;28;19912;-52
2022/12/31 08:13:12;;;;;;;;;;;18.90;51.20;;;;;;5066246;28;19912;-53
2022/12/31 08:15:38;;;;;;;;;;;18.80;51.30;;;;;;5067818;28;20443;-52
2022/12/31 08:18:03;;;;;;;;;;;18.80;51.30;;;;;;5066302;28;20051;-51
2022/12/31 08:20:29;;;;;;;;;;;18.90;51.30;;;;;;5065230;28;19935;-52
2022/12/31 08:23:00;;;;;;;;;;;18.90;51.10;;;;;;5066900;28;19943;-52
2022/12/31 08:25:28;;;;;;;;;;;19.00;50.80;;;;;;5065617;28;20287;-52
2022/12/31 08:28:10;;;;;;;;;;;19.10;50.70;;;;;;5067278;28;19913;-52
2022/12/31 08:30:39;;;;;;;;;;;19.10;50.60;;;;;;5071407;28;20434;-53
2022/12/31 08:33:18;;;;;;;;;;;19.10;50.80;;;;;;5067923;28;19931;-52
2022/12/31 08:36:02;;;;;;;;;;;19.00;50.80;;;;;;5068528;28;20458;-52
2022/12/31 08:38:33;;;;;;;;;;;19.00;50.90;;;;;;5078146;28;21052;-53
2022/12/31 08:41:02;;;;;;;;;;;19.00;50.90;;;;;;5065922;28;19916;-53
2022/12/31 08:43:36;;;;;;;;;;;19.00;51.10;;;;;;5065049;28;19924;-53
2022/12/31 08:46:01;;;;;;;;;;;19.00;51.00;;;;;;5066547;28;19916;-52
2022/12/31 08:48:39;;;;;;;;;;;19.00;51.10;;;;;;5098470;28;19943;-52
2022/12/31 08:51:05;;;;;;;;;;;19.00;50.90;;;;;;5064671;28;19925;-53
2022/12/31 08:53:31;;;;;;;;;;;19.00;51.00;;;;;;5064737;28;19912;-52
2022/12/31 08:55:59;;;;;;;;;;;19.10;50.90;;;;;;5066255;28;20311;-52
2022/12/31 08:58:43;;;;;;;;;;;19.10;51.00;;;;;;5098457;27;19920;-52
2022/12/31 09:01:09;;;;;;;;;;;19.10;51.00;;;;;;5064976;28;19966;-52
2022/12/31 09:03:40;;;;;;;;;;;19.00;51.20;;;;;;5066363;28;19946;-54
2022/12/31 09:06:11;;;;;;;;;;;19.00;51.20;;;;;;5065900;28;20373;-53
2022/12/31 09:08:51;;;;;;;;;;;19.00;51.10;;;;;;5065718;28;19916;-53
2022/12/31 09:11:28;;;;;;;;;;;19.00;51.30;;;;;;5065895;28;20020;-52
2022/12/31 09:14:03;;;;;;;;;;;19.00;51.30;;;;;;5065589;28;20003;-51
2022/12/31 09:16:39;;;;;;;;;;;19.10;51.30;;;;;;5063369;28;19971;-51
2022/12/31 09:19:04;;;;;;;;;;;19.20;51.30;;;;;;5066188;28;19913;-52
2022/12/31 09:21:31;;;;;;;;;;;19.20;51.20;;;;;;5073506;28;19925;-52
2022/12/31 09:23:57;;;;;;;;;;;19.10;51.20;;;;;;5073868;28;19915;-52
2022/12/31 09:26:28;;;;;;;;;;;19.10;51.50;;;;;;5073420;28;20006;-53
2022/12/31 09:28:59;;;;;;;;;;;19.10;51.50;;;;;;5077134;28;19920;-51
2022/12/31 09:31:33;;;;;;;;;;;19.20;51.30;;;;;;5063928;28;19948;-53
2022/12/31 09:34:01;;;;;;;;;;;19.30;51.20;;;;;;5064563;28;19937;-52
2022/12/31 09:36:26;;;;;;;;;;;19.30;51.10;;;;;;5066203;28;19916;-52
2022/12/31 09:38:59;;;;;;;;;;;19.40;51.10;;;;;;5069521;28;20368;-51
2022/12/31 09:41:40;;;;;;;;;;;19.40;50.90;;;;;;5064048;28;20018;-52
2022/12/31 09:44:14;;;;;;;;;;;19.50;50.70;;;;;;5097808;28;20105;-51
2022/12/31 09:46:59;;;;;;;;;;;19.50;50.80;;;;;;5072822;28;19917;-52
2022/12/31 09:49:33;;;;;;;;;;;19.60;50.70;;;;;;5070877;28;20372;-52
2022/12/31 09:52:04;;;;;;;;;;;19.60;50.50;;;;;;5071902;28;19916;-52
2022/12/31 09:55:05;;;;;;;;;;;19.60;50.40;;;;;;5072116;28;19923;-54
2022/12/31 09:57:40;;;;;;;;;;;19.60;50.50;;;;;;5050554;28;19916;-52
2022/12/31 10:00:24;;;;;;;;;;;19.60;50.70;;;;;;5049733;28;20281;-52
2022/12/31 10:02:49;;;;;;;;;;;19.60;50.60;;;;;;5069533;28;19954;-51
2022/12/31 10:05:15;;;;;;;;;;;19.50;50.60;;;;;;5072711;28;19956;-53
2022/12/31 10:07:49;;;;;;;;;;;19.60;50.70;;;;;;5072629;28;19956;-51
2022/12/31 10:10:19;;;;;;;;;;;19.60;50.60;;;;;;5063456;28;19917;-51
2022/12/31 10:12:57;;;;;;;;;;;19.70;50.40;;;;;;5068438;28;19917;-52
2022/12/31 10:15:33;;;;;;;;;;;19.70;50.30;;;;;;5062521;28;19919;-53
2022/12/31 10:18:17;;;;;;;;;;;19.70;50.30;;;;;;5063758;28;20438;-52
2022/12/31 10:20:46;;;;;;;;;;;19.80;50.30;;;;;;5060707;28;21563;-53
2022/12/31 10:23:20;;;;;;;;;;;19.80;50.30;;;;;;5093696;28;19924;-53
2022/12/31 10:26:04;;;;;;;;;;;20.10;49.70;;;;;;5098956;28;20058;-53
2022/12/31 10:28:31;;;;;;;;;;;20.70;48.50;;;;;;5065748;28;21296;-53
2022/12/31 10:31:11;;;;;;;;;;;21.40;47.20;;;;;;5057560;28;20329;-53
2022/12/31 10:33:55;;;;;;;;;;;21.80;46.10;;;;;;5071200;28;19913;-53
2022/12/31 10:36:30;;;;;;;;;;;22.10;46.00;;;;;;5071582;28;20019;-53
2022/12/31 10:39:01;;;;;;;;;;;22.00;46.00;;;;;;5057087;28;19912;-53
2022/12/31 10:41:51;;;;;;;;;;;22.00;46.00;;;;;;5053691;28;20491;-53
2022/12/31 10:44:28;;;;;;;;;;;22.10;45.90;;;;;;5070113;28;19923;-53
2022/12/31 10:46:54;;;;;;;;;;;22.30;45.40;;;;;;5069917;28;19931;-53
2022/12/31 10:49:42;;;;;;;;;;;22.50;45.10;;;;;;5070376;28;20275;-53
2022/12/31 10:52:32;;;;;;;;;;;22.70;44.80;;;;;;5104479;28;20363;-53
2022/12/31 10:55:16;;;;;;;;;;;22.90;44.50;;;;;;5058889;28;20388;-53
2022/12/31 10:57:48;;;;;;;;;;;23.10;44.30;;;;;;5071925;28;19913;-53
2022/12/31 11:00:20;;;;;;;;;;;23.10;44.20;;;;;;5069803;28;19913;-53
2022/12/31 11:03:06;;;;;;;;;;;23.20;44.10;;;;;;5071988;28;20292;-53
2022/12/31 11:05:50;;;;;;;;;;;23.30;44.00;;;;;;5068416;28;20330;-52
2022/12/31 11:08:18;;;;;;;;;;;23.30;44.10;;;;;;5073642;28;19917;-53
2022/12/31 11:10:43;;;;;;;;;;;23.30;44.20;;;;;;5071167;28;20277;-53
2022/12/31 11:13:09;;;;;;;;;;;23.20;44.70;;;;;;5078988;28;19956;-52
2022/12/31 11:15:44;;;;;;;;;;;23.10;45.20;;;;;;5071726;28;19916;-53
2022/12/31 11:18:18;;;;;;;;;;;23.00;45.70;;;;;;5070159;28;19913;-53
2022/12/31 11:20:51;;;;;;;;;;;22.90;46.50;;;;;;5067834;28;19913;-53
2022/12/31 11:23:23;;;;;;;;;;;22.60;46.90;;;;;;5069390;28;19970;-52
2022/12/31 11:26:09;;;;;;;;;;;22.30;47.70;;;;;;5070955;28;19935;-53
2022/12/31 11:28:53;;;;;;;;;;;22.10;48.60;;;;;;5070621;28;19913;-52
2022/12/31 11:31:36;;;;;;;;;;;21.90;49.30;;;;;;5070002;28;19995;-53
2022/12/31 11:34:11;;;;;;;;;;;21.80;49.90;;;;;;5050653;28;20273;-52
2022/12/31 11:36:41;;;;;;;;;;;21.70;50.20;;;;;;5069932;28;19912;-52
2022/12/31 11:39:20;;;;;;;;;;;21.60;50.40;;;;;;5069590;28;19970;-52
2022/12/31 11:41:49;;;;;;;;;;;21.60;50.60;;;;;;5070863;28;20319;-52
2022/12/31 11:44:23;;;;;;;;;;;21.70;50.80;;;;;;5070934;28;19917;-52
2022/12/31 11:46:51;;;;;;;;;;;21.80;50.60;;;;;;5104119;28;20003;-52
2022/12/31 11:49:35;;;;;;;;;;;21.90;50.70;;;;;;5069782;28;19912;-52
2022/12/31 11:52:05;;;;;;;;;;;21.90;50.60;;;;;;5071131;28;19912;-52
2022/12/31 11:54:43;;;;;;;;;;;21.90;51.00;;;;;;5067687;28;19917;-52
2022/12/31 11:57:12;;;;;;;;;;;21.80;50.90;;;;;;5070089;28;19924;-52
2022/12/31 11:59:37;;;;;;;;;;;21.70;51.00;;;;;;5071250;28;20391;-52
2022/12/31 12:02:07;;;;;;;;;;;21.60;51.10;;;;;;5070407;28;19913;-52
2022/12/31 12:04:33;;;;;;;;;;;21.50;51.30;;;;;;5073574;28;19916;-52
2022/12/31 12:06:58;;;;;;;;;;;21.40;51.80;;;;;;5084945;28;19912;-51
2022/12/31 12:09:30;;;;;;;;;;;21.20;52.10;;;;;;5079368;28;19908;-52
2022/12/31 12:11:59;;;;;;;;;;;21.10;52.30;;;;;;5081947;28;19920;-53
2022/12/31 12:14:34;;;;;;;;;;;21.00;52.60;;;;;;5069542;28;20013;-52
2022/12/31 12:17:00;;;;;;;;;;;20.90;52.80;;;;;;5067800;28;20383;-52
2022/12/31 12:19:26;;;;;;;;;;;20.90;52.90;;;;;;5070413;28;19912;-52
2022/12/31 12:21:51;;;;;;;;;;;20.90;52.90;;;;;;5058661;28;19970;-52
2022/12/31 12:24:18;;;;;;;;;;;20.90;53.00;;;;;;5070052;28;19928;-52
2022/12/31 12:26:44;;;;;;;;;;;20.90;52.90;;;;;;5072796;28;19912;-51
2022/12/31 12:29:10;;;;;;;;;;;21.00;52.90;;;;;;5072344;28;20367;-51
2022/12/31 12:31:36;;;;;;;;;;;21.00;52.90;;;;;;5088308;28;19909;-52
2022/12/31 12:34:02;;;;;;;;;;;21.00;52.90;;;;;;5076926;28;20327;-51
2022/12/31 12:36:27;;;;;;;;;;;21.00;52.90;;;;;;5068686;28;19921;-52
2022/12/31 12:39:00;;;;;;;;;;;21.00;52.90;;;;;;5072706;28;19917;-52
2022/12/31 12:41:26;;;;;;;;;;;21.00;52.90;;;;;;5073084;28;19916;-52
2022/12/31 12:44:07;;;;;;;;;;;21.10;52.70;;;;;;5072710;28;20052;-52
2022/12/31 12:46:34;;;;;;;;;;;21.20;52.60;;;;;;5065313;28;20277;-53
2022/12/31 12:48:59;;;;;;;;;;;21.10;52.70;;;;;;5072942;28;19916;-53
2022/12/31 12:51:29;;;;;;;;;;;21.10;53.00;;;;;;5077316;28;19920;-53
2022/12/31 12:54:14;;;;;;;;;;;21.00;53.40;;;;;;5073684;28;19936;-52
2022/12/31 12:56:56;;;;;;;;;;;21.00;53.50;;;;;;5066984;28;20054;-52
2022/12/31 12:59:28;;;;;;;;;;;21.00;53.60;;;;;;5060455;28;19913;-52
2022/12/31 13:01:57;;;;;;;;;;;21.00;53.90;;;;;;5056269;28;19916;-52
2022/12/31 13:04:36;;;;;;;;;;;21.10;53.90;;;;;;5073555;28;20495;-52
2022/12/31 13:07:07;;;;;;;;;;;21.20;54.00;;;;;;5068725;28;19919;-52
2022/12/31 13:09:37;;;;;;;;;;;21.30;54.10;;;;;;5068944;28;19912;-52
2022/12/31 13:12:08;;;;;;;;;;;21.30;54.00;;;;;;5071544;28;19920;-52
2022/12/31 13:14:36;;;;;;;;;;;21.30;54.10;;;;;;5067827;28;20265;-52
2022/12/31 13:17:11;;;;;;;;;;;21.10;54.60;;;;;;5065778;28;19921;-53
2022/12/31 13:19:40;;;;;;;;;;;20.90;55.20;;;;;;5066702;28;19958;-52
2022/12/31 13:22:09;;;;;;;;;;;20.70;55.60;;;;;;5055224;28;20300;-52
2022/12/31 13:24:41;;;;;;;;;;;20.60;55.90;;;;;;5063169;28;20398;-52
2022/12/31 13:27:15;;;;;;;;;;;20.70;56.00;;;;;;5069904;28;19916;-52
2022/12/31 13:29:41;;;;;;;;;;;20.90;55.80;;;;;;5070950;28;19912;-52
2022/12/31 13:32:06;;;;;;;;;;;21.10;55.80;;;;;;5072994;28;19923;-52
2022/12/31 13:34:36;;;;;;;;;;;21.10;55.60;;;;;;5069683;28;19912;-52
2022/12/31 13:37:03;;;;;;;;;;;21.20;55.60;;;;;;5071990;28;19966;-51
2022/12/31 13:39:29;;;;;;;;;;;21.20;55.50;;;;;;5070819;28;19917;-51
2022/12/31 13:41:59;;;;;;;;;;;21.20;55.70;;;;;;5071649;28;19935;-51
2022/12/31 13:44:29;;;;;;;;;;;21.10;55.90;;;;;;5069591;28;19917;-52
2022/12/31 13:47:07;;;;;;;;;;;21.10;55.90;;;;;;5069241;28;19916;-51
2022/12/31 13:49:36;;;;;;;;;;;21.10;55.90;;;;;;5104535;28;19919;-51
2022/12/31 13:52:11;;;;;;;;;;;21.20;56.00;;;;;;5071225;28;19912;-52
2022/12/31 13:54:52;;;;;;;;;;;21.30;56.10;;;;;;5064405;28;19913;-52
2022/12/31 13:57:36;;;;;;;;;;;21.30;56.00;;;;;;5064054;28;19931;-51
2022/12/31 14:00:03;;;;;;;;;;;21.40;55.70;;;;;;5066202;28;19913;-53
2022/12/31 14:02:35;;;;;;;;;;;21.50;55.50;;;;;;5066827;28;19916;-53
2022/12/31 14:05:03;;;;;;;;;;;21.50;55.30;;;;;;5065248;28;21216;-52
2022/12/31 14:07:33;;;;;;;;;;;21.50;55.20;;;;;;5069020;28;20273;-52
2022/12/31 14:09:59;;;;;;;;;;;21.50;55.00;;;;;;5095798;28;19916;-52
2022/12/31 14:12:40;;;;;;;;;;;21.50;54.90;;;;;;5059191;28;19920;-52
2022/12/31 14:15:24;;;;;;;;;;;21.50;54.90;;;;;;5063496;28;20047;-53
2022/12/31 14:17:51;;;;;;;;;;;21.40;54.80;;;;;;5062913;28;19913;-52
2022/12/31 14:20:22;;;;;;;;;;;21.40;54.70;;;;;;5056897;28;19959;-53
2022/12/31 14:23:05;;;;;;;;;;;21.40;54.60;;;;;;5057436;28;19920;-53
2022/12/31 14:25:35;;;;;;;;;;;21.40;54.50;;;;;;5070573;28;19981;-52
2022/12/31 14:28:01;;;;;;;;;;;21.50;54.50;;;;;;5070495;28;20210;-52
2022/12/31 14:30:31;;;;;;;;;;;21.40;54.50;;;;;;5066870;28;20287;-52
2022/12/31 14:33:12;;;;;;;;;;;21.40;54.50;;;;;;5070231;28;19913;-53
2022/12/31 14:35:38;;;;;;;;;;;21.40;54.50;;;;;;5071792;28;20344;-52
2022/12/31 14:38:25;;;;;;;;;;;21.40;54.50;;;;;;5057385;28;19913;-52